X  Sluiten METAR luchtvaart weer gegevens      EDDK Cologne Bonn Airport
Temperatuur
13°C Temperatuur
11°C Dauwpunt
88% Vochtigheid



Wind
8 KM/U
5 MPH
2 M/S
4 KTS



120°
OZO
Huidig weer

Helder Helder
Luchtdruk 1021 (hPa) - 30.15 (inHg)
Zicht 6 (mijl) - 9.7 (km)
Vliegveld
Vliegveld code EDDK

Locatie : Cologne Bonn Airport
Afstand: 56 (km)

Metar:
EDDK 200020Z AUTO 12004KT 080V150 CAVOK 13/11 Q1021 NOSIG

Tijd: 2024-06-20 02:20 CEST